createdAt,value
2022-10-09T00:01:22.320Z,7.07
2022-10-09T00:03:51.938Z,5.57
2022-10-09T00:06:21.831Z,8.03
2022-10-09T00:08:49.991Z,7.57
2022-10-09T00:11:22.111Z,7.03
2022-10-09T00:13:50.742Z,5.57
2022-10-09T00:16:20.069Z,10.83
2022-10-09T00:18:48.751Z,6.60
2022-10-09T00:21:21.215Z,6.87
2022-10-09T00:23:50.257Z,6.93
2022-10-09T00:26:20.172Z,7.37
2022-10-09T00:28:48.983Z,6.60
2022-10-09T00:31:17.358Z,5.07
2022-10-09T00:33:46.095Z,6.50
2022-10-09T00:36:15.309Z,6.80
2022-10-09T00:38:43.417Z,8.23
2022-10-09T00:41:15.344Z,5.37
2022-10-09T00:43:47.510Z,5.40
2022-10-09T00:46:27.305Z,6.30
2022-10-09T00:49:05.090Z,7.77
2022-10-09T00:51:35.200Z,7.90
2022-10-09T00:54:06.080Z,8.53
2022-10-09T00:56:35.520Z,5.93
2022-10-09T00:59:06.254Z,7.53
2022-10-09T01:01:34.259Z,7.90
2022-10-09T01:04:02.226Z,6.83
2022-10-09T01:06:45.124Z,8.67
2022-10-09T01:09:15.874Z,7.17
2022-10-09T01:11:51.386Z,6.00
2022-10-09T01:14:27.175Z,5.93
2022-10-09T01:17:00.521Z,11.80
2022-10-09T01:19:45.769Z,6.23
2022-10-09T01:22:27.997Z,6.23
2022-10-09T01:25:02.753Z,6.77
2022-10-09T01:27:34.081Z,6.63
2022-10-09T01:30:04.709Z,7.47
2022-10-09T01:32:34.910Z,7.90
2022-10-09T01:35:03.506Z,7.17
2022-10-09T01:37:32.839Z,7.27
2022-10-09T01:40:02.093Z,7.33
2022-10-09T01:42:32.623Z,6.70
2022-10-09T01:45:00.589Z,6.37
2022-10-09T01:47:29.000Z,6.13
2022-10-09T01:50:03.025Z,6.83
2022-10-09T01:52:42.758Z,7.13
2022-10-09T01:55:33.484Z,5.83
2022-10-09T01:58:10.181Z,6.17
2022-10-09T02:00:43.325Z,6.77
2022-10-09T02:03:14.549Z,5.73
2022-10-09T02:05:45.215Z,5.20
2022-10-09T02:08:18.458Z,5.33
2022-10-09T02:10:47.875Z,7.57
2022-10-09T02:13:17.352Z,5.87
2022-10-09T02:15:49.592Z,7.50
2022-10-09T02:18:26.912Z,5.20
2022-10-09T02:21:01.068Z,5.07
2022-10-09T02:23:30.056Z,6.67
2022-10-09T02:25:58.668Z,6.50
2022-10-09T02:28:28.129Z,5.63
2022-10-09T02:31:03.259Z,5.70
2022-10-09T02:33:35.007Z,6.00
2022-10-09T02:36:03.617Z,5.63
2022-10-09T02:38:31.630Z,6.00
2022-10-09T02:41:00.580Z,5.67
2022-10-09T02:43:30.573Z,7.73
2022-10-09T02:45:58.525Z,5.03
2022-10-09T02:48:26.640Z,5.83
2022-10-09T02:50:54.539Z,5.27
2022-10-09T02:53:22.417Z,6.30
2022-10-09T02:55:50.288Z,6.00
2022-10-09T02:58:18.291Z,7.47
2022-10-09T03:00:50.842Z,7.57
2022-10-09T03:03:19.229Z,5.60
2022-10-09T03:05:47.714Z,6.57
2022-10-09T03:08:16.152Z,8.30
2022-10-09T03:10:43.994Z,5.83
2022-10-09T03:13:11.856Z,8.50
2022-10-09T03:15:40.024Z,6.50
2022-10-09T03:18:09.404Z,5.90
2022-10-09T03:20:37.273Z,4.53
2022-10-09T03:23:05.381Z,10.97
2022-10-09T03:25:33.278Z,5.03
2022-10-09T03:28:01.172Z,5.40
2022-10-09T03:30:29.149Z,4.77
2022-10-09T03:32:57.251Z,5.47
2022-10-09T03:35:26.612Z,5.60
2022-10-09T03:37:54.545Z,5.60
2022-10-09T03:40:22.434Z,6.13
2022-10-09T03:42:50.638Z,6.40
2022-10-09T03:45:18.896Z,6.67
2022-10-09T03:47:47.053Z,5.50
2022-10-09T03:50:14.967Z,5.63
2022-10-09T03:52:44.218Z,6.23
2022-10-09T03:55:12.100Z,5.80
2022-10-09T03:57:40.122Z,5.30
2022-10-09T04:00:09.772Z,4.80
2022-10-09T04:02:37.882Z,5.13
2022-10-09T04:05:06.828Z,4.33
2022-10-09T04:07:34.738Z,4.70
2022-10-09T04:10:04.984Z,7.77
2022-10-09T04:12:32.932Z,4.83
2022-10-09T04:15:00.850Z,4.33
2022-10-09T04:17:28.862Z,4.23
2022-10-09T04:19:56.748Z,8.17
2022-10-09T04:22:24.764Z,4.53
2022-10-09T04:24:52.648Z,4.20
2022-10-09T04:27:21.929Z,5.67
2022-10-09T04:29:49.847Z,6.50
2022-10-09T04:32:17.754Z,5.50
2022-10-09T04:34:45.637Z,5.00
2022-10-09T04:37:13.781Z,4.40
2022-10-09T04:39:41.717Z,7.00
2022-10-09T04:42:09.653Z,4.53
2022-10-09T04:44:39.010Z,4.80
2022-10-09T04:47:11.100Z,5.20
2022-10-09T04:49:39.838Z,7.07
2022-10-09T04:52:07.888Z,5.27
2022-10-09T04:54:35.754Z,5.20
2022-10-09T04:57:03.763Z,6.30
2022-10-09T04:59:31.825Z,6.93
2022-10-09T05:02:01.334Z,5.27
2022-10-09T05:04:29.365Z,5.37
2022-10-09T05:06:57.242Z,5.47
2022-10-09T05:09:25.137Z,5.43
2022-10-09T05:11:53.084Z,5.07
2022-10-09T05:14:20.997Z,6.93
2022-10-09T05:17:12.567Z,5.60
2022-10-09T05:19:41.572Z,5.13
2022-10-09T05:22:09.538Z,7.97
2022-10-09T05:24:37.418Z,8.90
2022-10-09T05:27:06.021Z,5.40
2022-10-09T05:29:34.166Z,5.80
2022-10-09T05:32:02.219Z,5.93
2022-10-09T05:34:30.271Z,4.60
2022-10-09T05:36:59.624Z,5.27
2022-10-09T05:39:27.555Z,5.10
2022-10-09T05:41:55.569Z,4.57
2022-10-09T05:44:23.677Z,6.30
2022-10-09T05:46:51.695Z,6.03
2022-10-09T05:49:19.558Z,4.07
2022-10-09T05:51:47.553Z,7.60
2022-10-09T05:54:19.386Z,7.47
2022-10-09T05:56:47.486Z,4.30
2022-10-09T05:59:19.506Z,5.13
2022-10-09T06:01:50.134Z,7.00
2022-10-09T06:04:20.288Z,5.07
2022-10-09T06:06:49.010Z,6.27
2022-10-09T06:09:19.890Z,7.47
2022-10-09T06:11:47.759Z,6.43
2022-10-09T06:14:15.737Z,6.80
2022-10-09T06:16:46.247Z,4.57
2022-10-09T06:19:15.847Z,4.20
2022-10-09T06:21:44.707Z,5.67
2022-10-09T06:24:24.301Z,4.77
2022-10-09T06:26:55.116Z,5.23
2022-10-09T06:29:23.262Z,5.30
2022-10-09T06:31:51.276Z,5.43
2022-10-09T06:34:19.299Z,6.23
2022-10-09T06:36:47.268Z,5.57
2022-10-09T06:39:15.148Z,6.00
2022-10-09T06:41:44.485Z,6.87
2022-10-09T06:44:16.549Z,4.83
2022-10-09T06:46:46.532Z,8.07
2022-10-09T06:49:14.472Z,7.43
2022-10-09T06:51:42.371Z,7.30
2022-10-09T06:54:13.119Z,8.27
2022-10-09T06:56:41.244Z,6.83
2022-10-09T06:59:11.844Z,6.13
2022-10-09T07:01:39.999Z,6.38
2022-10-09T07:04:11.037Z,8.27
2022-10-09T07:06:42.063Z,6.30
2022-10-09T07:09:12.090Z,6.97
2022-10-09T07:11:43.177Z,10.23
2022-10-09T07:14:15.843Z,7.57
2022-10-09T07:16:45.971Z,9.18
2022-10-09T07:19:15.814Z,7.27
2022-10-09T07:21:45.833Z,7.07
2022-10-09T07:24:14.262Z,7.35
2022-10-09T07:26:43.741Z,8.52
2022-10-09T07:29:15.726Z,6.13
2022-10-09T07:31:43.955Z,6.70
2022-10-09T07:34:11.892Z,7.93
2022-10-09T07:36:39.874Z,8.05
2022-10-09T07:39:07.912Z,7.53
2022-10-09T07:41:36.305Z,6.63
2022-10-09T07:44:04.573Z,6.57
2022-10-09T07:46:34.390Z,8.07
2022-10-09T07:49:02.599Z,5.90
2022-10-09T07:51:31.985Z,7.25
2022-10-09T07:54:02.076Z,6.00
2022-10-09T07:56:31.801Z,6.40
2022-10-09T07:59:01.767Z,6.50
2022-10-09T08:01:31.644Z,6.88
2022-10-09T08:04:02.044Z,5.75
2022-10-09T08:06:31.022Z,8.55
2022-10-09T08:09:01.790Z,10.25
2022-10-09T08:11:31.132Z,5.93
2022-10-09T08:13:59.631Z,6.45
2022-10-09T08:16:28.604Z,6.40
2022-10-09T08:18:58.627Z,7.97
2022-10-09T08:21:29.153Z,6.32
2022-10-09T08:23:59.022Z,9.65
2022-10-09T08:26:30.163Z,8.10
2022-10-09T08:29:00.921Z,5.22
2022-10-09T08:31:30.160Z,6.25
2022-10-09T08:33:59.524Z,5.13
2022-10-09T08:36:29.805Z,5.35
2022-10-09T08:38:57.815Z,5.95
2022-10-09T08:41:39.593Z,4.82
2022-10-09T08:44:15.786Z,4.40
2022-10-09T08:46:58.246Z,4.95
2022-10-09T08:49:31.218Z,4.60
2022-10-09T08:52:13.738Z,3.40
2022-10-09T08:54:41.843Z,3.40
2022-10-09T08:57:14.562Z,2.80
2022-10-09T08:59:44.005Z,3.53
2022-10-09T09:02:28.982Z,5.22
2022-10-09T09:05:10.126Z,3.38
2022-10-09T09:07:48.226Z,5.45
2022-10-09T09:10:21.313Z,3.95
2022-10-09T09:12:54.597Z,2.88
2022-10-09T09:15:36.252Z,2.45
2022-10-09T09:18:19.082Z,4.75
2022-10-09T09:20:53.634Z,3.08
2022-10-09T09:23:30.071Z,3.38
2022-10-09T09:25:59.644Z,3.13
2022-10-09T09:28:30.772Z,3.08
2022-10-09T09:31:04.243Z,2.72
2022-10-09T09:33:44.456Z,2.50
2022-10-09T09:36:22.712Z,2.50
2022-10-09T09:41:42.419Z,2.55
2022-10-09T09:44:12.140Z,3.40
2022-10-09T09:46:41.179Z,2.30
2022-10-09T09:49:17.881Z,3.08
2022-10-09T09:51:46.678Z,5.50
2022-10-09T09:54:22.575Z,2.53
2022-10-09T09:57:14.030Z,2.33
2022-10-09T09:59:43.097Z,4.15
2022-10-09T10:02:15.547Z,2.40
2022-10-09T10:04:56.590Z,2.60
2022-10-09T10:07:32.281Z,2.30
2022-10-09T10:10:06.362Z,2.20
2022-10-09T10:12:34.691Z,2.88
2022-10-09T10:15:03.014Z,2.30
2022-10-09T10:17:39.010Z,3.10
2022-10-09T10:20:07.821Z,2.83
2022-10-09T10:22:36.951Z,2.53
2022-10-09T10:25:09.689Z,2.28
2022-10-09T10:27:42.957Z,2.10
2022-10-09T10:30:15.270Z,2.50
2022-10-09T10:32:51.151Z,3.53
2022-10-09T10:35:24.935Z,2.65
2022-10-09T10:38:00.393Z,2.38
2022-10-09T10:40:34.044Z,3.40
2022-10-09T10:43:15.720Z,2.53
2022-10-09T10:45:54.014Z,2.10
2022-10-09T10:48:27.027Z,2.20
2022-10-09T10:51:03.942Z,1.80
2022-10-09T10:53:42.537Z,2.00
2022-10-09T10:56:20.823Z,3.45
2022-10-09T10:58:57.331Z,2.33
2022-10-09T11:01:38.290Z,2.75
2022-10-09T11:04:28.646Z,2.47
2022-10-09T11:07:07.538Z,2.35
2022-10-09T11:09:45.286Z,2.28
2022-10-09T11:12:43.285Z,2.30
2022-10-09T11:15:19.360Z,2.20
2022-10-09T11:17:56.583Z,2.33
2022-10-09T11:20:45.542Z,2.10
2022-10-09T11:23:24.175Z,2.38
2022-10-09T11:25:59.219Z,2.30
2022-10-09T11:28:34.289Z,2.20
2022-10-09T11:31:09.647Z,3.00
2022-10-09T11:33:43.829Z,2.20
2022-10-09T11:36:17.818Z,4.60
2022-10-09T11:38:50.134Z,2.90
2022-10-09T11:41:18.233Z,2.13
2022-10-09T11:44:01.715Z,7.82
2022-10-09T11:46:42.044Z,2.75
2022-10-09T11:49:20.981Z,3.15
2022-10-09T11:51:58.039Z,2.40
2022-10-09T11:54:27.526Z,3.25
2022-10-09T11:56:58.465Z,3.60
2022-10-09T11:59:31.493Z,1.70
2022-10-09T12:02:01.275Z,2.55
2022-10-09T12:04:53.430Z,3.00
2022-10-09T12:07:33.276Z,2.15
2022-10-09T12:10:06.277Z,2.55
2022-10-09T12:12:37.777Z,4.22
2022-10-09T12:15:26.469Z,1.90
2022-10-09T12:17:54.695Z,2.47
2022-10-09T12:20:26.298Z,2.20
2022-10-09T12:23:21.774Z,2.33
2022-10-09T12:25:46.938Z,2.63
2022-10-09T12:28:28.001Z,2.17
2022-10-09T12:30:58.915Z,2.20
2022-10-09T12:33:31.605Z,4.13
2022-10-09T12:36:04.272Z,2.00
2022-10-09T12:38:33.628Z,2.00
2022-10-09T12:41:04.329Z,1.80
2022-10-09T12:43:33.842Z,2.78
2022-10-09T12:46:03.501Z,2.00
2022-10-09T12:48:38.092Z,3.30
2022-10-09T12:51:16.515Z,2.10
2022-10-09T12:53:48.777Z,1.90
2022-10-09T12:56:23.957Z,2.08
2022-10-09T12:58:55.801Z,2.50
2022-10-09T13:01:26.476Z,3.92
2022-10-09T13:03:56.275Z,4.45
2022-10-09T13:06:27.356Z,2.40
2022-10-09T13:08:57.949Z,1.92
2022-10-09T13:11:33.293Z,2.20
2022-10-09T13:14:01.667Z,2.28
2022-10-09T13:16:41.126Z,2.08
2022-10-09T13:19:25.483Z,2.03
2022-10-09T13:22:22.030Z,1.90
2022-10-09T13:24:53.633Z,1.80
2022-10-09T13:27:23.061Z,2.13
2022-10-09T13:29:50.959Z,2.60
2022-10-09T13:32:20.918Z,2.05
2022-10-09T13:34:48.792Z,2.25
2022-10-09T13:37:20.184Z,1.90
2022-10-09T13:39:48.297Z,2.15
2022-10-09T13:42:17.712Z,2.28
2022-10-09T13:44:45.597Z,1.83
2022-10-09T13:47:13.509Z,2.70
2022-10-09T13:49:42.779Z,1.98
2022-10-09T13:52:11.123Z,1.90
2022-10-09T13:54:39.170Z,2.40
2022-10-09T13:57:07.123Z,2.30
2022-10-09T13:59:35.143Z,3.17
2022-10-09T14:02:03.504Z,2.10
2022-10-09T14:04:31.564Z,2.20
2022-10-09T14:07:00.836Z,2.30
2022-10-09T14:09:28.903Z,2.75
2022-10-09T14:11:58.007Z,5.47
2022-10-09T14:14:25.928Z,2.35
2022-10-09T14:16:53.948Z,2.20
2022-10-09T14:19:27.082Z,2.40
2022-10-09T14:21:55.154Z,2.30
2022-10-09T14:24:25.249Z,2.67
2022-10-09T14:26:53.443Z,2.60
2022-10-09T14:29:21.442Z,2.40
2022-10-09T14:31:51.842Z,3.58
2022-10-09T14:34:19.802Z,2.83
2022-10-09T14:36:47.945Z,2.80
2022-10-09T14:39:16.537Z,2.83
2022-10-09T14:41:45.936Z,2.78
2022-10-09T14:44:14.429Z,2.80
2022-10-09T14:46:42.357Z,4.28
2022-10-09T14:49:11.625Z,3.83
2022-10-09T14:51:41.308Z,3.47
2022-10-09T14:54:10.218Z,3.75
2022-10-09T14:56:38.237Z,3.58
2022-10-09T14:59:07.768Z,3.78
2022-10-09T15:01:36.492Z,3.58
2022-10-09T15:04:05.257Z,3.70
2022-10-09T15:06:34.009Z,4.15
2022-10-09T15:09:05.714Z,4.70
2022-10-09T15:11:35.275Z,4.45
2022-10-09T15:14:03.940Z,3.95
2022-10-09T15:16:33.656Z,5.18
2022-10-09T15:19:01.824Z,4.50
2022-10-09T15:21:31.986Z,4.80
2022-10-09T15:24:02.206Z,5.35
2022-10-09T15:26:32.872Z,5.15
2022-10-09T15:29:03.687Z,5.70
2022-10-09T15:31:34.466Z,5.05
2022-10-09T15:34:02.536Z,4.88
2022-10-09T15:36:32.562Z,5.05
2022-10-09T15:39:03.278Z,4.57
2022-10-09T15:41:33.133Z,4.70
2022-10-09T15:44:02.986Z,5.63
2022-10-09T15:46:31.448Z,5.38
2022-10-09T15:49:00.831Z,5.75
2022-10-09T15:51:33.238Z,6.38
2022-10-09T15:54:02.227Z,5.68
2022-10-09T15:56:35.968Z,5.88
2022-10-09T15:59:06.784Z,6.53
2022-10-09T16:01:38.319Z,6.55
2022-10-09T16:04:07.658Z,7.72
2022-10-09T16:06:35.552Z,6.82
2022-10-09T16:09:04.638Z,7.47
2022-10-09T16:11:32.641Z,7.63
2022-10-09T16:14:02.334Z,7.15
2022-10-09T16:16:36.065Z,8.98
2022-10-09T16:19:05.209Z,10.48
2022-10-09T16:21:34.533Z,10.30
2022-10-09T16:24:02.697Z,8.77
2022-10-09T16:26:31.043Z,8.18
2022-10-09T16:29:00.941Z,6.65
2022-10-09T16:31:31.400Z,9.13
2022-10-09T16:34:00.040Z,7.25
2022-10-09T16:36:28.779Z,6.57
2022-10-09T16:39:01.494Z,7.40
2022-10-09T16:41:29.981Z,7.47
2022-10-09T16:44:21.970Z,9.35
2022-10-09T16:46:49.952Z,7.25
2022-10-09T16:49:21.410Z,7.60
2022-10-09T16:51:52.367Z,8.63
2022-10-09T16:54:22.257Z,8.02
2022-10-09T16:56:50.435Z,6.85
2022-10-09T16:59:18.781Z,8.20
2022-10-09T17:01:47.765Z,8.43
2022-10-09T17:04:15.800Z,7.90
2022-10-09T17:06:46.862Z,9.00
2022-10-09T17:09:15.524Z,9.60
2022-10-09T17:11:45.980Z,8.90
2022-10-09T17:14:14.784Z,8.50
2022-10-09T17:16:44.250Z,8.95
2022-10-09T17:19:12.194Z,8.25
2022-10-09T17:21:40.163Z,9.05
2022-10-09T17:24:08.703Z,8.50
2022-10-09T17:26:37.017Z,9.35
2022-10-09T17:29:07.432Z,9.52
2022-10-09T17:31:35.920Z,8.82
2022-10-09T17:34:05.398Z,9.18
2022-10-09T17:36:36.348Z,9.88
2022-10-09T17:39:06.290Z,9.13
2022-10-09T17:41:34.283Z,9.20
2022-10-09T17:44:02.333Z,8.65
2022-10-09T17:46:32.447Z,7.97
2022-10-09T17:49:01.074Z,8.90
2022-10-09T17:51:31.220Z,9.27
2022-10-09T17:54:03.369Z,8.90
2022-10-09T17:56:34.074Z,17.83
2022-10-09T17:59:03.180Z,15.25
2022-10-09T18:01:32.827Z,9.50
2022-10-09T18:04:01.295Z,13.48
2022-10-09T18:06:32.730Z,9.95
2022-10-09T18:09:00.740Z,8.82
2022-10-09T18:11:30.185Z,10.43
2022-10-09T18:13:58.901Z,14.50
2022-10-09T18:16:35.766Z,15.57
2022-10-09T18:19:07.864Z,9.52
2022-10-09T18:21:36.569Z,10.15
2022-10-09T18:24:04.899Z,9.20
2022-10-09T18:26:32.806Z,9.65
2022-10-09T18:29:02.047Z,10.23
2022-10-09T18:31:31.152Z,47.42
2022-10-09T18:33:59.750Z,21.83
2022-10-09T18:36:33.523Z,11.18
2022-10-09T18:39:04.137Z,14.60
2022-10-09T18:41:32.632Z,11.63
2022-10-09T18:44:03.062Z,13.82
2022-10-09T18:46:37.174Z,27.33
2022-10-09T18:49:09.307Z,24.13
2022-10-09T18:51:40.737Z,12.07
2022-10-09T18:54:10.721Z,10.95
2022-10-09T18:56:41.720Z,10.55
2022-10-09T18:59:13.201Z,9.95
2022-10-09T19:01:41.547Z,9.85
2022-10-09T19:04:10.060Z,11.15
2022-10-09T19:06:39.715Z,39.63
2022-10-09T19:09:09.330Z,19.52
2022-10-09T19:11:37.272Z,9.82
2022-10-09T19:14:05.303Z,9.60
2022-10-09T19:16:36.045Z,9.88
2022-10-09T19:19:04.298Z,8.93
2022-10-09T19:21:32.648Z,9.07
2022-10-09T19:24:04.547Z,11.02
2022-10-09T19:26:33.171Z,8.27
2022-10-09T19:29:01.190Z,9.35
2022-10-09T19:31:29.560Z,8.70
2022-10-09T19:33:57.767Z,8.85
2022-10-09T19:36:26.714Z,9.20
2022-10-09T19:38:54.833Z,9.52
2022-10-09T19:41:24.090Z,9.50
2022-10-09T19:43:52.096Z,9.52
2022-10-09T19:46:22.678Z,9.43
2022-10-09T19:48:50.640Z,10.10
2022-10-09T19:51:20.327Z,9.60
2022-10-09T19:53:49.983Z,9.13
2022-10-09T19:56:20.548Z,9.07
2022-10-09T19:58:50.600Z,9.85
2022-10-09T20:01:21.072Z,9.43
2022-10-09T20:03:50.096Z,9.65
2022-10-09T20:06:17.977Z,11.35
2022-10-09T20:08:46.292Z,10.15
2022-10-09T20:11:14.211Z,14.18
2022-10-09T20:13:43.178Z,10.57
2022-10-09T20:16:15.041Z,9.95
2022-10-09T20:18:43.693Z,10.93
2022-10-09T20:21:13.331Z,10.18
2022-10-09T20:23:41.371Z,9.90
2022-10-09T20:26:12.199Z,10.00
2022-10-09T20:28:40.361Z,10.63
2022-10-09T20:31:11.369Z,9.70
2022-10-09T20:33:40.838Z,10.30
2022-10-09T20:36:09.681Z,9.63
2022-10-09T20:38:37.602Z,10.13
2022-10-09T20:41:07.720Z,9.13
2022-10-09T20:43:35.909Z,9.48
2022-10-09T20:46:07.205Z,9.40
2022-10-09T20:48:35.280Z,9.65
2022-10-09T20:51:05.003Z,9.82
2022-10-09T20:53:32.966Z,9.85
2022-10-09T20:56:01.478Z,9.27
2022-10-09T20:58:29.682Z,9.15
2022-10-09T21:00:57.720Z,8.77
2022-10-09T21:03:25.680Z,8.90
2022-10-09T21:05:54.070Z,9.38
2022-10-09T21:08:23.703Z,10.98
2022-10-09T21:10:51.743Z,10.40
2022-10-09T21:13:19.648Z,9.45
2022-10-09T21:15:49.977Z,9.48
2022-10-09T21:18:20.422Z,9.40
2022-10-09T21:20:49.425Z,9.23
2022-10-09T21:23:19.723Z,10.25
2022-10-09T21:25:50.624Z,9.27
2022-10-09T21:28:18.857Z,8.02
2022-10-09T21:30:46.848Z,8.50
2022-10-09T21:33:15.352Z,9.70
2022-10-09T21:35:44.939Z,9.10
2022-10-09T21:38:14.634Z,9.68
2022-10-09T21:40:42.672Z,9.50
2022-10-09T21:43:12.277Z,9.40
2022-10-09T21:45:41.313Z,9.77
2022-10-09T21:48:15.558Z,9.55
2022-10-09T21:50:43.963Z,10.32
2022-10-09T21:53:12.166Z,9.43
2022-10-09T21:55:40.731Z,9.85
2022-10-09T21:58:08.891Z,9.23
2022-10-09T22:00:57.680Z,9.98
2022-10-09T22:03:26.527Z,9.32
2022-10-09T22:05:55.060Z,9.45
2022-10-09T22:08:24.016Z,10.50
2022-10-09T22:10:52.151Z,9.35
2022-10-09T22:13:21.714Z,9.27
2022-10-09T22:15:51.322Z,9.90
2022-10-09T22:18:21.264Z,9.40
2022-10-09T22:20:50.902Z,10.77
2022-10-09T22:23:19.966Z,10.05
2022-10-09T22:25:57.111Z,9.80
2022-10-09T22:28:25.726Z,9.30
2022-10-09T22:31:02.994Z,9.77
2022-10-09T22:33:32.695Z,9.50
2022-10-09T22:36:05.787Z,9.75
2022-10-09T22:38:34.299Z,9.98
2022-10-09T22:41:10.250Z,8.90
2022-10-09T22:43:39.209Z,10.13
2022-10-09T22:46:09.376Z,10.63
2022-10-09T22:48:38.793Z,9.98
2022-10-09T22:51:08.787Z,8.77
2022-10-09T22:53:38.159Z,9.93
2022-10-09T22:56:07.188Z,8.65
2022-10-09T22:58:35.845Z,9.40
2022-10-09T23:01:06.289Z,9.57
2022-10-09T23:03:34.344Z,9.27
2022-10-09T23:06:12.134Z,9.43
2022-10-09T23:08:42.170Z,8.60
2022-10-09T23:11:10.486Z,10.10
2022-10-09T23:13:39.132Z,10.60
2022-10-09T23:16:10.009Z,10.65
2022-10-09T23:18:38.968Z,9.90
2022-10-09T23:21:08.717Z,11.57
2022-10-09T23:23:38.056Z,9.75
2022-10-09T23:26:06.707Z,9.85
2022-10-09T23:28:35.074Z,9.57
2022-10-09T23:31:03.805Z,13.73
2022-10-09T23:33:31.932Z,8.77
2022-10-09T23:36:00.204Z,9.98
2022-10-09T23:38:28.160Z,9.00
2022-10-09T23:40:58.395Z,9.70
2022-10-09T23:43:26.609Z,9.82
2022-10-09T23:45:56.961Z,10.32
2022-10-09T23:48:25.179Z,9.30
2022-10-09T23:50:53.835Z,9.68
2022-10-09T23:53:22.988Z,9.63
2022-10-09T23:55:51.033Z,9.88
2022-10-09T23:58:21.131Z,11.77
